McGregor, Iowa
Current Conditions -  °F | °C
As of 10:55 PM on Saturday 22 Nov 2014 (Local Time) from KPDC Reporting Station
Overcast Overcast  
Wind Chill: 53°   Ceiling: 2600
Heat Index: 53°   Visibility: 10mi
Dew Point: 49°   Wind: 6mph
Humidity: 87%   Direction: 150°SSE
Pressure: 29.68"   Gusts: NA
Location:  43.02°N, 91.18°W
Report Text: KPDC 230455Z AUTO 15005KT 10SM SCT013 BKN026 OVC045 12/10 A2968 RMK AO2 T01160095
Loading
Personal Weather Stations






























Interactive Weather Map New forecast layout! Learn more

10-Day Weather Forecast

Advertisements
Track Severe Weather on mobile